createdAt,value
2022-08-26T00:00:27.174Z,28.11
2022-08-26T00:01:29.711Z,28.11
2022-08-26T00:02:31.569Z,28.10
2022-08-26T00:03:34.039Z,28.07
2022-08-26T00:04:35.576Z,28.02
2022-08-26T00:05:37.085Z,28.02
2022-08-26T00:06:38.667Z,28.01
2022-08-26T00:07:44.253Z,28.01
2022-08-26T00:08:46.347Z,28.00
2022-08-26T00:09:49.971Z,27.99
2022-08-26T00:10:51.615Z,27.98
2022-08-26T00:11:53.942Z,27.97
2022-08-26T00:12:55.509Z,27.97
2022-08-26T00:13:57.944Z,27.96
2022-08-26T00:14:59.731Z,27.97
2022-08-26T00:16:02.290Z,27.95
2022-08-26T00:17:04.086Z,27.95
2022-08-26T00:18:22.333Z,27.92
2022-08-26T00:19:24.253Z,27.87
2022-08-26T00:20:26.666Z,27.84
2022-08-26T00:21:28.375Z,27.84
2022-08-26T00:22:31.194Z,27.83
2022-08-26T00:23:32.776Z,27.83
2022-08-26T00:24:34.287Z,27.82
2022-08-26T00:25:35.831Z,27.82
2022-08-26T00:26:44.002Z,27.80
2022-08-26T00:27:46.197Z,27.77
2022-08-26T00:28:49.946Z,27.77
2022-08-26T00:29:51.499Z,27.75
2022-08-26T00:30:52.986Z,27.74
2022-08-26T00:31:54.672Z,27.72
2022-08-26T00:32:56.719Z,27.72
2022-08-26T00:33:58.601Z,27.71
2022-08-26T00:35:01.023Z,27.69
2022-08-26T00:36:03.496Z,27.70
2022-08-26T00:37:08.949Z,27.69
2022-08-26T00:38:11.957Z,27.69
2022-08-26T00:39:13.507Z,27.69
2022-08-26T00:40:16.417Z,27.66
2022-08-26T00:41:19.191Z,27.63
2022-08-26T00:42:21.236Z,27.64
2022-08-26T00:43:23.675Z,27.63
2022-08-26T00:44:25.259Z,27.63
2022-08-26T00:45:27.353Z,27.61
2022-08-26T00:46:29.198Z,27.62
2022-08-26T00:47:32.211Z,27.61
2022-08-26T00:48:33.933Z,27.63
2022-08-26T00:49:40.687Z,27.61
2022-08-26T00:50:42.811Z,27.60
2022-08-26T00:51:45.771Z,27.59
2022-08-26T00:52:47.265Z,27.59
2022-08-26T00:53:57.386Z,27.58
2022-08-26T00:55:09.931Z,27.58
2022-08-26T00:56:20.671Z,27.56
2022-08-26T00:57:22.148Z,27.55
2022-08-26T00:58:24.067Z,27.53
2022-08-26T00:59:26.573Z,27.51
2022-08-26T01:00:28.735Z,27.50
2022-08-26T01:01:30.705Z,27.47
2022-08-26T01:02:32.366Z,27.45
2022-08-26T01:03:33.987Z,27.44
2022-08-26T01:04:36.441Z,27.43
2022-08-26T01:05:39.072Z,27.42
2022-08-26T01:06:41.615Z,27.38
2022-08-26T01:07:46.268Z,27.33
2022-08-26T01:08:48.359Z,27.34
2022-08-26T01:09:50.264Z,27.33
2022-08-26T01:10:52.500Z,27.30
2022-08-26T01:11:57.957Z,27.31
2022-08-26T01:13:00.636Z,27.30
2022-08-26T01:14:02.792Z,27.30
2022-08-26T01:15:04.556Z,27.31
2022-08-26T01:16:08.268Z,27.31
2022-08-26T01:17:10.241Z,27.30
2022-08-26T01:18:11.906Z,27.28
2022-08-26T01:19:33.095Z,27.28
2022-08-26T01:20:46.711Z,27.28
2022-08-26T01:21:49.830Z,27.28
2022-08-26T01:22:53.488Z,27.26
2022-08-26T01:23:57.242Z,27.27
2022-08-26T01:24:59.129Z,27.26
2022-08-26T01:26:02.444Z,27.27
2022-08-26T01:27:05.571Z,27.27
2022-08-26T01:28:09.077Z,27.25
2022-08-26T01:29:13.277Z,27.22
2022-08-26T01:30:14.786Z,27.21
2022-08-26T01:31:17.986Z,27.21
2022-08-26T01:32:19.754Z,27.20
2022-08-26T01:33:23.598Z,27.17
2022-08-26T01:34:28.203Z,27.16
2022-08-26T01:35:30.271Z,27.17
2022-08-26T01:36:31.826Z,27.16
2022-08-26T01:37:33.976Z,27.17
2022-08-26T01:38:35.587Z,27.17
2022-08-26T01:39:37.115Z,27.15
2022-08-26T01:40:39.583Z,27.14
2022-08-26T01:41:44.031Z,27.12
2022-08-26T01:42:46.839Z,27.13
2022-08-26T01:43:49.683Z,27.13
2022-08-26T01:44:52.680Z,27.13
2022-08-26T01:45:57.188Z,27.12
2022-08-26T01:46:58.823Z,27.12
2022-08-26T01:48:01.751Z,27.13
2022-08-26T01:49:03.806Z,27.12
2022-08-26T01:50:10.784Z,27.11
2022-08-26T01:51:13.095Z,27.12
2022-08-26T01:52:17.980Z,27.14
2022-08-26T01:53:19.489Z,27.13
2022-08-26T01:54:23.106Z,27.13
2022-08-26T01:55:33.047Z,27.13
2022-08-26T01:56:36.530Z,27.13
2022-08-26T01:57:38.228Z,27.11
2022-08-26T01:58:43.487Z,27.10
2022-08-26T01:59:45.785Z,27.07
2022-08-26T02:00:47.391Z,27.06
2022-08-26T02:01:51.997Z,27.04
2022-08-26T02:03:13.681Z,26.97
2022-08-26T02:04:15.483Z,26.97
2022-08-26T02:05:18.191Z,26.97
2022-08-26T02:06:19.882Z,26.95
2022-08-26T02:07:21.541Z,26.94
2022-08-26T02:08:25.591Z,26.94
2022-08-26T02:09:27.572Z,26.93
2022-08-26T02:10:29.057Z,26.90
2022-08-26T02:11:30.626Z,26.89
2022-08-26T02:12:32.323Z,26.88
2022-08-26T02:13:34.341Z,26.87
2022-08-26T02:14:43.797Z,26.86
2022-08-26T02:15:45.943Z,26.84
2022-08-26T02:16:47.841Z,26.85
2022-08-26T02:17:52.569Z,26.84
2022-08-26T02:18:54.447Z,26.84
2022-08-26T02:19:57.088Z,26.84
2022-08-26T02:20:58.596Z,26.82
2022-08-26T02:22:00.793Z,26.82
2022-08-26T02:23:02.807Z,26.81
2022-08-26T02:24:11.734Z,26.81
2022-08-26T02:25:18.071Z,26.80
2022-08-26T02:26:20.606Z,26.81
2022-08-26T02:27:23.748Z,26.82
2022-08-26T02:28:26.942Z,26.79
2022-08-26T02:29:33.028Z,26.78
2022-08-26T02:30:34.662Z,26.75
2022-08-26T02:31:37.323Z,26.75
2022-08-26T02:32:40.180Z,26.74
2022-08-26T02:33:43.046Z,26.74
2022-08-26T02:34:45.573Z,26.70
2022-08-26T02:35:48.127Z,26.69
2022-08-26T02:36:49.753Z,26.69
2022-08-26T02:37:52.518Z,26.69
2022-08-26T02:38:54.196Z,26.67
2022-08-26T02:39:57.333Z,26.66
2022-08-26T02:40:58.862Z,26.66
2022-08-26T02:42:01.412Z,26.66
2022-08-26T02:43:03.193Z,26.65
2022-08-26T02:44:04.888Z,26.60
2022-08-26T02:45:07.450Z,26.59
2022-08-26T02:46:09.341Z,26.58
2022-08-26T02:47:12.995Z,26.58
2022-08-26T02:48:15.434Z,26.58
2022-08-26T02:49:17.287Z,26.57
2022-08-26T02:50:18.925Z,26.57
2022-08-26T02:51:20.598Z,26.57
2022-08-26T02:52:23.891Z,26.57
2022-08-26T02:53:25.780Z,26.57
2022-08-26T02:54:27.997Z,26.57
2022-08-26T02:55:29.988Z,26.55
2022-08-26T02:56:33.014Z,26.55
2022-08-26T02:57:35.114Z,26.53
2022-08-26T02:58:37.093Z,26.52
2022-08-26T02:59:40.041Z,26.50
2022-08-26T03:00:53.502Z,26.48
2022-08-26T03:01:56.129Z,26.47
2022-08-26T03:02:58.724Z,26.47
2022-08-26T03:04:00.808Z,26.47
2022-08-26T03:05:03.132Z,26.46
2022-08-26T03:06:05.111Z,26.47
2022-08-26T03:07:07.088Z,26.47
2022-08-26T03:08:11.767Z,26.48
2022-08-26T03:09:18.503Z,26.45
2022-08-26T03:10:21.478Z,26.46
2022-08-26T03:11:23.743Z,26.46
2022-08-26T03:12:26.664Z,26.45
2022-08-26T03:13:28.399Z,26.37
2022-08-26T03:14:30.480Z,26.45
2022-08-26T03:15:32.545Z,26.45
2022-08-26T03:16:35.187Z,26.42
2022-08-26T03:17:36.885Z,26.43
2022-08-26T03:18:38.742Z,26.43
2022-08-26T03:19:40.467Z,26.42
2022-08-26T03:20:43.123Z,26.40
2022-08-26T03:21:47.334Z,26.36
2022-08-26T03:22:51.520Z,26.36
2022-08-26T03:23:53.344Z,26.38
2022-08-26T03:24:55.101Z,26.36
2022-08-26T03:25:56.961Z,26.35
2022-08-26T03:26:58.509Z,26.36
2022-08-26T03:28:00.087Z,26.36
2022-08-26T03:29:20.551Z,26.37
2022-08-26T03:30:44.687Z,26.38
2022-08-26T03:31:47.303Z,26.37
2022-08-26T03:32:49.276Z,26.36
2022-08-26T03:33:51.439Z,26.35
2022-08-26T03:34:53.726Z,26.36
2022-08-26T03:35:55.611Z,26.32
2022-08-26T03:36:58.232Z,26.32
2022-08-26T03:38:00.314Z,26.31
2022-08-26T03:39:03.454Z,26.29
2022-08-26T03:40:05.531Z,26.26
2022-08-26T03:41:08.188Z,26.27
2022-08-26T03:42:09.694Z,26.26
2022-08-26T03:43:12.595Z,26.25
2022-08-26T03:44:15.363Z,26.25
2022-08-26T03:45:17.487Z,26.24
2022-08-26T03:46:20.213Z,26.22
2022-08-26T03:47:23.274Z,26.23
2022-08-26T03:48:24.924Z,26.20
2022-08-26T03:49:28.860Z,26.20
2022-08-26T03:50:31.243Z,26.18
2022-08-26T03:51:38.807Z,26.17
2022-08-26T03:52:43.860Z,26.18
2022-08-26T03:53:46.054Z,26.16
2022-08-26T03:54:47.655Z,26.16
2022-08-26T03:55:49.167Z,26.15
2022-08-26T03:56:53.931Z,26.14
2022-08-26T03:57:55.831Z,26.13
2022-08-26T03:58:57.401Z,26.11
2022-08-26T03:59:58.963Z,26.09
2022-08-26T04:01:00.511Z,26.07
2022-08-26T04:02:08.608Z,26.05
2022-08-26T04:03:18.213Z,26.05
2022-08-26T04:04:22.888Z,26.06
2022-08-26T04:05:26.100Z,26.06
2022-08-26T04:06:31.076Z,26.05
2022-08-26T04:07:32.603Z,26.05
2022-08-26T04:08:34.747Z,26.04
2022-08-26T04:09:36.229Z,26.04
2022-08-26T04:10:38.321Z,26.03
2022-08-26T04:11:39.927Z,26.04
2022-08-26T04:12:41.605Z,26.04
2022-08-26T04:13:43.384Z,26.03
2022-08-26T04:14:44.861Z,26.04
2022-08-26T04:15:46.429Z,26.04
2022-08-26T04:16:48.170Z,26.04
2022-08-26T04:17:49.710Z,26.05
2022-08-26T04:18:51.290Z,26.04
2022-08-26T04:19:53.411Z,26.03
2022-08-26T04:20:55.719Z,26.04
2022-08-26T04:21:57.352Z,26.00
2022-08-26T04:22:58.861Z,26.01
2022-08-26T04:24:00.554Z,26.01
2022-08-26T04:25:06.777Z,25.99
2022-08-26T04:26:08.440Z,25.98
2022-08-26T04:27:10.607Z,25.98
2022-08-26T04:28:14.085Z,25.97
2022-08-26T04:29:17.816Z,25.96
2022-08-26T04:30:22.535Z,25.96
2022-08-26T04:31:26.382Z,25.95
2022-08-26T04:32:32.461Z,25.95
2022-08-26T04:33:33.991Z,25.94
2022-08-26T04:34:43.581Z,25.93
2022-08-26T04:35:46.517Z,25.92
2022-08-26T04:36:49.656Z,25.90
2022-08-26T04:37:51.735Z,25.91
2022-08-26T04:38:53.471Z,25.91
2022-08-26T04:39:55.672Z,25.90
2022-08-26T04:40:57.619Z,25.91
2022-08-26T04:41:59.687Z,25.90
2022-08-26T04:43:03.621Z,25.91
2022-08-26T04:44:06.768Z,25.92
2022-08-26T04:45:10.265Z,25.92
2022-08-26T04:46:13.700Z,25.93
2022-08-26T04:47:16.392Z,25.94
2022-08-26T04:48:18.197Z,25.95
2022-08-26T04:49:20.578Z,25.95
2022-08-26T04:50:23.554Z,25.96
2022-08-26T04:51:28.280Z,25.96
2022-08-26T04:52:30.255Z,25.96
2022-08-26T04:53:33.224Z,25.98
2022-08-26T04:54:35.446Z,25.97
2022-08-26T04:55:38.635Z,25.95
2022-08-26T04:56:43.144Z,25.97
2022-08-26T04:57:45.577Z,25.96
2022-08-26T04:58:47.895Z,25.96
2022-08-26T04:59:49.741Z,25.96
2022-08-26T05:00:52.599Z,25.96
2022-08-26T05:01:57.444Z,25.96
2022-08-26T05:03:00.795Z,25.97
2022-08-26T05:04:03.683Z,25.97
2022-08-26T05:05:10.103Z,25.98
2022-08-26T05:06:12.325Z,25.99
2022-08-26T05:07:14.030Z,26.00
2022-08-26T05:08:19.607Z,26.00
2022-08-26T05:09:21.154Z,26.01
2022-08-26T05:10:23.554Z,26.01
2022-08-26T05:11:25.098Z,26.01
2022-08-26T05:12:27.787Z,26.01
2022-08-26T05:13:29.367Z,26.02
2022-08-26T05:14:31.127Z,26.03
2022-08-26T05:15:33.775Z,26.03
2022-08-26T05:16:35.351Z,26.03
2022-08-26T05:17:37.910Z,26.04
2022-08-26T05:18:39.833Z,26.05
2022-08-26T05:19:43.050Z,26.04
2022-08-26T05:20:45.438Z,26.06
2022-08-26T05:21:48.719Z,26.05
2022-08-26T05:22:50.371Z,26.05
2022-08-26T05:23:54.769Z,26.04
2022-08-26T05:24:56.261Z,26.05
2022-08-26T05:25:59.310Z,26.05
2022-08-26T05:27:03.137Z,26.01
2022-08-26T05:28:14.158Z,26.03
2022-08-26T05:29:15.847Z,26.03
2022-08-26T05:30:18.394Z,26.02
2022-08-26T05:31:20.874Z,26.01
2022-08-26T05:32:22.496Z,26.01
2022-08-26T05:33:24.100Z,26.01
2022-08-26T05:34:30.194Z,26.01
2022-08-26T05:35:34.072Z,26.00
2022-08-26T05:36:36.043Z,26.00
2022-08-26T05:37:38.864Z,26.00
2022-08-26T05:38:40.473Z,26.01
2022-08-26T05:39:51.341Z,26.00
2022-08-26T05:40:53.192Z,25.99
2022-08-26T05:41:54.968Z,26.01
2022-08-26T05:42:56.522Z,26.01
2022-08-26T05:43:58.252Z,26.01
2022-08-26T05:44:59.941Z,26.02
2022-08-26T05:46:05.737Z,26.03
2022-08-26T05:47:07.572Z,26.05
2022-08-26T05:48:10.392Z,26.05
2022-08-26T05:49:13.036Z,26.07
2022-08-26T05:50:14.786Z,26.06
2022-08-26T05:51:16.309Z,26.08
2022-08-26T05:52:17.816Z,26.09
2022-08-26T05:53:20.757Z,26.09
2022-08-26T05:54:22.586Z,26.10
2022-08-26T05:55:24.134Z,26.11
2022-08-26T05:56:27.598Z,26.13
2022-08-26T05:57:29.884Z,26.14
2022-08-26T05:58:31.655Z,26.14
2022-08-26T05:59:33.172Z,26.15
2022-08-26T06:00:37.412Z,26.18
2022-08-26T06:01:39.690Z,26.19
2022-08-26T06:02:41.295Z,26.21
2022-08-26T06:03:45.010Z,26.22
2022-08-26T06:04:47.411Z,26.26
2022-08-26T06:05:48.996Z,26.28
2022-08-26T06:06:50.814Z,26.30
2022-08-26T06:08:11.134Z,26.34
2022-08-26T06:09:12.654Z,26.36
2022-08-26T06:10:32.363Z,26.40
2022-08-26T06:11:34.456Z,26.43
2022-08-26T06:12:36.081Z,26.46
2022-08-26T06:13:37.934Z,26.48
2022-08-26T06:14:39.854Z,26.50
2022-08-26T06:15:42.312Z,26.51
2022-08-26T06:16:45.104Z,26.53
2022-08-26T06:17:46.691Z,26.57
2022-08-26T06:18:48.382Z,26.59
2022-08-26T06:19:49.875Z,26.61
2022-08-26T06:20:57.004Z,26.64
2022-08-26T06:22:22.309Z,26.66
2022-08-26T06:23:44.372Z,26.69
2022-08-26T06:25:04.520Z,26.72
2022-08-26T06:26:06.187Z,26.75
2022-08-26T06:27:09.936Z,26.78
2022-08-26T06:28:14.970Z,26.82
2022-08-26T06:29:24.055Z,26.84
2022-08-26T06:30:26.260Z,26.86
2022-08-26T06:31:28.343Z,26.89
2022-08-26T06:32:30.802Z,26.91
2022-08-26T06:33:32.568Z,26.93
2022-08-26T06:34:34.404Z,26.97
2022-08-26T06:35:36.848Z,27.01
2022-08-26T06:36:39.438Z,27.04
2022-08-26T06:37:42.826Z,27.06
2022-08-26T06:38:44.337Z,27.09
2022-08-26T06:39:46.089Z,27.10
2022-08-26T06:40:48.729Z,27.13
2022-08-26T06:41:51.027Z,27.15
2022-08-26T06:42:52.591Z,27.17
2022-08-26T06:43:56.612Z,27.20
2022-08-26T06:44:58.087Z,27.23
2022-08-26T06:46:01.142Z,27.26
2022-08-26T06:47:02.676Z,27.28
2022-08-26T06:48:04.889Z,27.32
2022-08-26T06:49:08.457Z,27.35
2022-08-26T06:50:11.858Z,27.38
2022-08-26T06:51:14.409Z,27.40
2022-08-26T06:52:21.190Z,27.44
2022-08-26T06:53:27.928Z,27.48
2022-08-26T06:54:31.733Z,27.52
2022-08-26T06:55:34.174Z,27.55
2022-08-26T06:56:40.647Z,27.59
2022-08-26T06:57:42.236Z,27.62
2022-08-26T06:58:43.783Z,27.68
2022-08-26T06:59:45.311Z,27.71
2022-08-26T07:00:47.378Z,27.74
2022-08-26T07:01:49.752Z,27.77
2022-08-26T07:02:51.538Z,27.80
2022-08-26T07:03:54.268Z,27.83
2022-08-26T07:04:58.918Z,27.88
2022-08-26T07:06:03.316Z,27.90
2022-08-26T07:07:05.346Z,27.94
2022-08-26T07:08:06.929Z,27.99
2022-08-26T07:09:10.138Z,28.04
2022-08-26T07:10:11.756Z,28.07
2022-08-26T07:11:13.270Z,28.10
2022-08-26T07:12:14.759Z,28.14
2022-08-26T07:13:16.416Z,28.17
2022-08-26T07:14:32.224Z,28.22
2022-08-26T07:15:35.821Z,28.25
2022-08-26T07:16:38.599Z,28.28
2022-08-26T07:17:40.109Z,28.33
2022-08-26T07:18:42.299Z,28.38
2022-08-26T07:19:46.666Z,28.41
2022-08-26T07:20:48.378Z,28.44
2022-08-26T07:21:49.889Z,28.48
2022-08-26T07:22:51.613Z,28.51
2022-08-26T07:23:56.439Z,28.57
2022-08-26T07:25:01.684Z,28.60
2022-08-26T07:26:09.333Z,28.66
2022-08-26T07:27:12.051Z,28.70
2022-08-26T07:28:13.575Z,28.74
2022-08-26T07:29:16.905Z,28.78
2022-08-26T07:30:18.711Z,28.81
2022-08-26T07:31:21.276Z,28.84
2022-08-26T07:32:23.083Z,28.88
2022-08-26T07:33:24.786Z,28.92
2022-08-26T07:34:26.538Z,28.96
2022-08-26T07:35:28.130Z,28.99
2022-08-26T07:36:30.290Z,29.02
2022-08-26T07:37:35.514Z,29.06
2022-08-26T07:38:40.727Z,29.11
2022-08-26T07:39:43.336Z,29.15
2022-08-26T07:40:45.280Z,29.19
2022-08-26T07:41:47.794Z,29.23
2022-08-26T07:42:49.374Z,29.26
2022-08-26T07:43:51.638Z,29.30
2022-08-26T07:44:53.629Z,29.33
2022-08-26T07:45:55.240Z,29.36
2022-08-26T07:46:57.119Z,29.41
2022-08-26T07:47:58.778Z,29.45
2022-08-26T07:49:00.405Z,29.48
2022-08-26T07:50:01.971Z,29.53
2022-08-26T07:51:03.620Z,29.57
2022-08-26T07:52:05.513Z,29.61
2022-08-26T07:53:07.172Z,29.65
2022-08-26T07:54:12.249Z,29.68
2022-08-26T07:55:14.573Z,29.73
2022-08-26T07:56:16.204Z,29.77
2022-08-26T07:57:19.086Z,29.81
2022-08-26T07:58:20.744Z,29.84
2022-08-26T07:59:23.284Z,29.88
2022-08-26T08:00:24.789Z,29.92
2022-08-26T08:01:30.807Z,29.96
2022-08-26T08:02:32.938Z,29.99
2022-08-26T08:03:36.307Z,30.04
2022-08-26T08:04:37.899Z,30.07
2022-08-26T08:05:41.250Z,30.11
2022-08-26T08:06:43.867Z,30.15
2022-08-26T08:07:45.657Z,30.20
2022-08-26T08:08:48.199Z,30.23
2022-08-26T08:09:52.517Z,30.28
2022-08-26T08:10:54.135Z,30.30
2022-08-26T08:11:55.682Z,30.33
2022-08-26T08:12:57.590Z,30.38
2022-08-26T08:14:01.070Z,30.42
2022-08-26T08:15:03.061Z,30.45
2022-08-26T08:16:05.306Z,30.50
2022-08-26T08:17:06.992Z,30.52
2022-08-26T08:18:15.673Z,30.57
2022-08-26T08:19:18.054Z,30.61
2022-08-26T08:20:19.746Z,30.66
2022-08-26T08:21:24.091Z,30.69
2022-08-26T08:22:25.849Z,30.73
2022-08-26T08:23:29.039Z,30.78
2022-08-26T08:24:33.426Z,30.84
2022-08-26T08:25:35.108Z,30.88
2022-08-26T08:26:36.676Z,30.92
2022-08-26T08:27:38.504Z,30.95
2022-08-26T08:28:40.022Z,31.01
2022-08-26T08:29:43.161Z,31.06
2022-08-26T08:30:44.756Z,31.10
2022-08-26T08:31:58.424Z,31.13
2022-08-26T08:33:01.699Z,31.18
2022-08-26T08:34:03.522Z,31.24
2022-08-26T08:35:11.534Z,31.28
2022-08-26T08:36:18.419Z,31.33
2022-08-26T08:37:23.008Z,31.39
2022-08-26T08:38:25.287Z,31.42
2022-08-26T08:39:27.905Z,31.47
2022-08-26T08:40:29.503Z,31.51
2022-08-26T08:41:31.481Z,31.55
2022-08-26T08:42:45.959Z,31.59
2022-08-26T08:43:48.736Z,31.65
2022-08-26T08:44:52.155Z,31.68
2022-08-26T08:45:54.833Z,31.72
2022-08-26T08:46:58.301Z,31.78
2022-08-26T08:48:01.042Z,31.81
2022-08-26T08:49:04.215Z,31.86
2022-08-26T08:50:18.079Z,31.89
2022-08-26T08:51:19.571Z,31.93
2022-08-26T08:52:24.284Z,31.96
2022-08-26T08:53:34.839Z,32.01
2022-08-26T08:54:36.353Z,32.04
2022-08-26T08:55:45.111Z,32.06
2022-08-26T08:56:54.746Z,32.07
2022-08-26T08:58:02.627Z,32.08
2022-08-26T08:59:06.917Z,32.09
2022-08-26T09:00:10.989Z,32.12
2022-08-26T09:01:15.298Z,32.12
2022-08-26T09:02:23.207Z,32.13
2022-08-26T09:03:31.195Z,32.14
2022-08-26T09:04:41.931Z,32.16
2022-08-26T09:05:48.717Z,32.15
2022-08-26T09:06:51.975Z,32.18
2022-08-26T09:07:55.500Z,32.19
2022-08-26T09:08:57.015Z,32.23
2022-08-26T09:09:59.920Z,32.22
2022-08-26T09:11:02.382Z,32.25
2022-08-26T09:12:04.373Z,32.28
2022-08-26T09:13:07.033Z,32.27
2022-08-26T09:14:08.556Z,32.28
2022-08-26T09:15:26.387Z,32.31
2022-08-26T09:16:37.943Z,32.36
2022-08-26T09:17:57.383Z,32.40
2022-08-26T09:19:18.842Z,32.42
2022-08-26T09:20:39.098Z,32.44
2022-08-26T09:21:40.778Z,32.45
2022-08-26T09:22:44.253Z,32.48
2022-08-26T09:23:49.299Z,32.50
2022-08-26T09:24:52.289Z,32.53
2022-08-26T09:27:01.236Z,32.62
2022-08-26T09:28:02.941Z,32.64
2022-08-26T09:29:08.912Z,32.68
2022-08-26T09:30:12.002Z,32.73
2022-08-26T09:31:25.004Z,32.78
2022-08-26T09:32:30.154Z,32.84
2022-08-26T09:33:31.827Z,32.89
2022-08-26T09:34:33.542Z,32.96
2022-08-26T09:35:36.331Z,33.00
2022-08-26T09:36:48.561Z,33.05
2022-08-26T09:38:51.920Z,33.17
2022-08-26T09:39:53.515Z,33.20
2022-08-26T09:41:06.804Z,33.26
2022-08-26T09:42:14.263Z,33.29
2022-08-26T09:43:22.838Z,33.33
2022-08-26T09:44:24.651Z,33.40
2022-08-26T09:45:29.033Z,33.45
2022-08-26T09:46:31.825Z,33.51
2022-08-26T09:47:34.544Z,33.54
2022-08-26T09:48:37.193Z,33.61
2022-08-26T09:49:42.153Z,33.64
2022-08-26T09:50:56.982Z,33.70
2022-08-26T09:52:05.758Z,33.75
2022-08-26T09:53:28.775Z,33.77
2022-08-26T09:54:32.499Z,33.86
2022-08-26T09:55:35.240Z,33.96
2022-08-26T09:56:37.508Z,33.99
2022-08-26T09:57:51.391Z,34.08
2022-08-26T09:58:53.063Z,34.17
2022-08-26T09:59:55.187Z,34.27
2022-08-26T10:00:57.311Z,34.30
2022-08-26T10:02:15.319Z,34.33
2022-08-26T10:03:24.124Z,34.36
2022-08-26T10:04:26.686Z,34.45
2022-08-26T10:05:31.354Z,34.56
2022-08-26T10:06:34.518Z,34.61
2022-08-26T10:07:43.454Z,34.64
2022-08-26T10:08:47.467Z,34.73
2022-08-26T10:09:49.324Z,34.80
2022-08-26T10:10:53.870Z,34.88
2022-08-26T10:11:56.314Z,34.91
2022-08-26T10:13:00.365Z,34.97
2022-08-26T10:14:25.082Z,35.07
2022-08-26T10:15:26.692Z,35.11
2022-08-26T10:16:47.355Z,35.21
2022-08-26T10:17:50.084Z,35.31
2022-08-26T10:19:02.725Z,35.35
2022-08-26T10:20:23.562Z,35.45
2022-08-26T10:21:27.651Z,35.53
2022-08-26T10:22:41.098Z,35.58
2022-08-26T10:23:43.768Z,35.62
2022-08-26T10:24:53.139Z,35.67
2022-08-26T10:25:58.993Z,35.75
2022-08-26T10:27:33.980Z,35.81
2022-08-26T10:28:44.409Z,35.87
2022-08-26T10:29:46.596Z,35.93
2022-08-26T10:31:10.731Z,36.01
2022-08-26T10:32:26.320Z,36.07
2022-08-26T10:33:29.473Z,36.15
2022-08-26T10:34:32.081Z,36.26
2022-08-26T10:35:34.008Z,36.35
2022-08-26T10:37:13.587Z,36.43
2022-08-26T10:38:12.104Z,36.53
2022-08-26T10:39:15.003Z,36.60
2022-08-26T10:40:28.448Z,36.65
2022-08-26T10:41:32.222Z,36.76
2022-08-26T10:42:43.226Z,36.86
2022-08-26T10:44:02.514Z,36.94
2022-08-26T10:45:11.781Z,36.92
2022-08-26T10:46:17.082Z,36.89
2022-08-26T10:47:25.660Z,36.86
2022-08-26T10:48:35.232Z,36.80
2022-08-26T10:49:36.871Z,36.77
2022-08-26T10:50:39.981Z,36.70
2022-08-26T10:51:47.850Z,36.66
2022-08-26T10:52:55.073Z,36.64
2022-08-26T10:53:56.647Z,36.66
2022-08-26T10:55:28.323Z,36.69
2022-08-26T10:56:49.015Z,36.75
2022-08-26T10:57:59.458Z,36.87
2022-08-26T10:59:10.416Z,37.01
2022-08-26T11:00:34.201Z,37.12
2022-08-26T11:01:46.972Z,37.24
2022-08-26T11:02:52.450Z,37.31
2022-08-26T11:03:58.111Z,37.33
2022-08-26T11:05:04.391Z,37.32
2022-08-26T11:06:24.272Z,37.37
2022-08-26T11:07:32.692Z,37.35
2022-08-26T11:08:34.252Z,37.35
2022-08-26T11:09:45.848Z,37.32
2022-08-26T11:10:47.309Z,37.30
2022-08-26T11:11:50.813Z,37.28
2022-08-26T11:12:52.314Z,37.21
2022-08-26T11:13:57.962Z,37.16
2022-08-26T11:15:00.562Z,37.03
2022-08-26T11:16:03.068Z,36.97
2022-08-26T11:17:08.275Z,36.82
2022-08-26T11:18:11.478Z,36.73
2022-08-26T11:19:50.878Z,36.70
2022-08-26T11:20:56.266Z,36.65
2022-08-26T11:22:05.175Z,36.62
2022-08-26T11:23:12.513Z,36.54
2022-08-26T11:24:32.941Z,36.51
2022-08-26T11:25:37.696Z,36.43
2022-08-26T11:26:56.239Z,36.44
2022-08-26T11:27:58.872Z,36.41
2022-08-26T11:29:00.416Z,36.37
2022-08-26T11:30:13.939Z,36.36
2022-08-26T11:31:25.206Z,36.37
2022-08-26T11:32:44.947Z,36.35
2022-08-26T11:33:50.992Z,36.36
2022-08-26T11:34:57.026Z,36.34
2022-08-26T11:35:59.874Z,36.35
2022-08-26T11:37:13.124Z,36.28
2022-08-26T11:38:14.649Z,36.20
2022-08-26T11:39:16.647Z,36.11
2022-08-26T11:40:25.136Z,36.08
2022-08-26T11:41:29.802Z,36.07
2022-08-26T11:42:41.669Z,36.05
2022-08-26T11:43:45.726Z,36.06
2022-08-26T11:44:49.371Z,36.05
2022-08-26T11:46:04.547Z,36.06
2022-08-26T11:47:11.492Z,36.02
2022-08-26T11:48:22.016Z,35.97
2022-08-26T11:49:26.013Z,36.00
2022-08-26T11:50:28.104Z,36.00
2022-08-26T11:51:31.568Z,36.01
2022-08-26T11:52:33.473Z,36.05
2022-08-26T11:53:42.626Z,36.03
2022-08-26T11:55:20.084Z,36.01
2022-08-26T11:56:31.531Z,35.89
2022-08-26T11:57:34.465Z,35.87
2022-08-26T11:58:40.832Z,35.89
2022-08-26T11:59:43.549Z,35.92
2022-08-26T12:00:58.019Z,35.95
2022-08-26T12:01:59.538Z,35.99
2022-08-26T12:03:02.446Z,36.02
2022-08-26T12:04:05.011Z,35.97
2022-08-26T12:05:06.943Z,36.05
2022-08-26T12:06:14.471Z,36.09
2022-08-26T12:07:16.282Z,36.09
2022-08-26T12:08:21.578Z,36.11
2022-08-26T12:09:27.232Z,36.15
2022-08-26T12:10:32.734Z,36.20
2022-08-26T12:11:35.702Z,36.26
2022-08-26T12:12:40.296Z,36.28
2022-08-26T12:13:42.711Z,36.29
2022-08-26T12:14:44.331Z,36.33
2022-08-26T12:15:51.583Z,36.38
2022-08-26T12:16:57.214Z,36.42
2022-08-26T12:18:00.361Z,36.47
2022-08-26T12:19:01.929Z,36.51
2022-08-26T12:20:06.222Z,36.54
2022-08-26T12:21:12.565Z,36.58
2022-08-26T12:22:16.908Z,36.62
2022-08-26T12:23:24.558Z,36.66
2022-08-26T12:24:26.221Z,36.69
2022-08-26T12:25:28.106Z,36.72
2022-08-26T12:26:37.558Z,36.75
2022-08-26T12:27:41.530Z,36.77
2022-08-26T12:28:44.175Z,36.76
2022-08-26T12:29:48.457Z,36.79
2022-08-26T12:31:00.975Z,36.83
2022-08-26T12:32:09.448Z,36.86
2022-08-26T12:33:22.396Z,36.90
2022-08-26T12:34:25.791Z,36.92
2022-08-26T12:35:28.816Z,36.92
2022-08-26T12:36:32.355Z,36.94
2022-08-26T12:37:34.371Z,36.94
2022-08-26T12:38:37.215Z,36.97
2022-08-26T12:39:39.724Z,36.98
2022-08-26T12:40:44.275Z,36.99
2022-08-26T12:41:47.251Z,37.02
2022-08-26T12:42:48.843Z,37.04
2022-08-26T12:43:50.339Z,37.06
2022-08-26T12:44:54.870Z,37.08
2022-08-26T12:45:57.018Z,37.07
2022-08-26T12:47:09.368Z,37.06
2022-08-26T12:48:21.766Z,37.07
2022-08-26T12:49:26.087Z,37.05
2022-08-26T12:50:28.710Z,37.04
2022-08-26T12:51:31.079Z,37.03
2022-08-26T12:52:33.453Z,37.04
2022-08-26T12:53:35.350Z,37.00
2022-08-26T12:54:57.055Z,36.99
2022-08-26T12:56:03.739Z,36.98
2022-08-26T12:57:13.185Z,36.98
2022-08-26T12:58:22.649Z,37.00
2022-08-26T12:59:24.957Z,36.97
2022-08-26T13:00:30.486Z,36.94
2022-08-26T13:01:43.021Z,36.91
2022-08-26T13:02:44.738Z,36.90
2022-08-26T13:03:46.276Z,36.88
2022-08-26T13:04:47.784Z,36.85
2022-08-26T13:05:55.355Z,36.85
2022-08-26T13:07:32.258Z,36.84
2022-08-26T13:08:34.080Z,36.81
2022-08-26T13:09:35.567Z,36.84
2022-08-26T13:10:37.829Z,36.80
2022-08-26T13:11:39.278Z,36.79
2022-08-26T13:12:41.363Z,36.78
2022-08-26T13:13:42.851Z,36.80
2022-08-26T13:14:44.338Z,36.78
2022-08-26T13:15:46.146Z,36.76
2022-08-26T13:16:48.255Z,36.76
2022-08-26T13:17:49.819Z,36.77
2022-08-26T13:18:53.051Z,36.75
2022-08-26T13:19:54.612Z,36.75
2022-08-26T13:20:56.707Z,36.74
2022-08-26T13:21:59.078Z,36.73
2022-08-26T13:23:00.675Z,36.75
2022-08-26T13:24:06.761Z,36.72
2022-08-26T13:25:08.416Z,36.69
2022-08-26T13:26:10.112Z,36.67
2022-08-26T13:27:12.583Z,36.67
2022-08-26T13:28:14.150Z,36.67
2022-08-26T13:29:15.708Z,36.64
2022-08-26T13:30:17.302Z,36.65
2022-08-26T13:31:19.668Z,36.65
2022-08-26T13:32:22.472Z,36.63
2022-08-26T13:33:27.814Z,36.63
2022-08-26T13:34:29.740Z,36.65
2022-08-26T13:35:31.214Z,36.67
2022-08-26T13:36:32.709Z,36.67
2022-08-26T13:37:34.884Z,36.69
2022-08-26T13:38:37.092Z,36.68
2022-08-26T13:39:39.388Z,36.68
2022-08-26T13:40:43.240Z,36.69
2022-08-26T13:41:44.780Z,36.70
2022-08-26T13:42:49.722Z,36.71
2022-08-26T13:43:53.527Z,36.72
2022-08-26T13:44:57.999Z,36.73
2022-08-26T13:46:00.757Z,36.72
2022-08-26T13:47:02.243Z,36.69
2022-08-26T13:48:04.580Z,36.70
2022-08-26T13:49:06.336Z,36.70
2022-08-26T13:50:08.083Z,36.69
2022-08-26T13:51:09.710Z,36.71
2022-08-26T13:52:12.662Z,36.69